Terminal Aerodrome Forecast
Issued by NWS San Angelo, TX

Home | Current Version | Previous Version | Text Only | Print | Product List | Glossary On
Versions: 1 2 3 4 5 6 7 8 9 10 11 12 13 14
000
FTUS44 KSJT 211100
TAFSJT
TAF
KSJT 211140Z 2112/2212 20010KT P6SM OVC010
      TEMPO 2112/2114 BKN007
     FM211600 19010KT P6SM BKN025
     FM211900 19011KT P6SM BKN035
     FM220500 15010KT P6SM VCSH BKN015=

USA.gov is the U.S. government's official web portal to all federal, state and local government web resources and services.